Time;durP1;ratioP1;P1;durP2;ratioP2;P2;SDS_P1;SDS_P2;PMS_P1;PMS_P2;Temp;Humidity;BMP_temperature;BMP_pressure;BME280_temperature;BME280_humidity;BME280_pressure;Samples;Min_cycle;Max_cycle;Signal;HPM_P1;HPM_P2
2021/12/31 00:01:08;;;;;;;3.92;1.40;;;17.50;64.30;;;;;;4991935;28;20097;-74
2021/12/31 00:03:34;;;;;;;4.65;1.40;;;17.40;64.20;;;;;;4994187;28;20490;-74
2021/12/31 00:05:59;;;;;;;4.35;1.17;;;17.40;64.20;;;;;;4991525;28;20027;-73
2021/12/31 00:08:25;;;;;;;4.75;1.42;;;17.40;64.20;;;;;;4991086;28;20038;-73
2021/12/31 00:10:55;;;;;;;3.25;1.35;;;17.40;64.20;;;;;;4990967;28;20477;-73
2021/12/31 00:13:20;;;;;;;3.15;1.30;;;17.40;64.20;;;;;;4990959;28;20035;-74
2021/12/31 00:15:46;;;;;;;4.00;1.38;;;17.40;64.20;;;;;;4990686;28;20026;-74
2021/12/31 00:18:11;;;;;;;2.35;1.00;;;17.50;64.20;;;;;;4991251;28;20543;-74
2021/12/31 00:20:40;;;;;;;3.85;1.33;;;17.40;64.10;;;;;;4991010;28;20123;-74
2021/12/31 00:23:11;;;;;;;3.20;1.40;;;17.40;64.10;;;;;;4991039;28;20058;-74
2021/12/31 00:25:40;;;;;;;2.25;1.20;;;17.40;64.00;;;;;;4990755;28;20388;-74
2021/12/31 00:28:07;;;;;;;3.10;1.20;;;17.40;64.00;;;;;;4991144;28;20138;-74
2021/12/31 00:30:34;;;;;;;3.28;1.35;;;17.40;64.00;;;;;;4990733;28;20038;-74
2021/12/31 00:33:01;;;;;;;3.08;1.40;;;17.40;64.00;;;;;;4991071;28;20062;-73
2021/12/31 00:35:28;;;;;;;4.10;1.40;;;17.40;63.90;;;;;;4991379;28;20080;-74
2021/12/31 00:37:54;;;;;;;2.15;1.30;;;17.40;63.90;;;;;;4990128;28;20054;-74
2021/12/31 00:40:19;;;;;;;3.38;1.27;;;17.40;64.00;;;;;;4990567;28;20169;-74
2021/12/31 00:42:45;;;;;;;3.67;1.33;;;17.40;63.80;;;;;;4990161;28;20819;-73
2021/12/31 00:45:13;;;;;;;2.95;1.27;;;17.30;63.80;;;;;;4990557;28;20037;-74
2021/12/31 00:47:39;;;;;;;3.90;1.42;;;17.30;63.80;;;;;;4990600;28;20118;-73
2021/12/31 00:50:05;;;;;;;3.88;1.52;;;17.40;63.80;;;;;;4990698;28;20106;-74
2021/12/31 00:52:31;;;;;;;4.72;1.20;;;17.30;63.70;;;;;;4990609;28;20107;-74
2021/12/31 00:54:58;;;;;;;3.22;1.40;;;17.30;63.80;;;;;;4990345;28;20066;-74
2021/12/31 00:57:24;;;;;;;4.80;1.60;;;17.30;63.80;;;;;;4989803;28;20046;-74
2021/12/31 00:59:50;;;;;;;3.25;1.50;;;17.30;63.70;;;;;;4990712;28;20389;-74
2021/12/31 01:02:17;;;;;;;2.28;1.20;;;17.30;63.70;;;;;;4990729;28;20038;-74
2021/12/31 01:04:43;;;;;;;4.05;1.35;;;17.30;63.70;;;;;;4990040;28;20045;-74
2021/12/31 01:07:09;;;;;;;3.53;1.30;;;17.30;63.70;;;;;;4990266;28;20045;-74
2021/12/31 01:09:35;;;;;;;2.80;1.20;;;17.30;63.70;;;;;;4989858;28;20038;-74
2021/12/31 01:12:01;;;;;;;5.18;1.48;;;17.30;63.60;;;;;;4989445;28;20176;-74
2021/12/31 01:14:35;;;;;;;2.95;1.10;;;17.30;63.70;;;;;;4990228;28;20064;-73
2021/12/31 01:17:04;;;;;;;3.03;1.20;;;17.30;63.60;;;;;;4989791;28;20474;-74
2021/12/31 01:19:46;;;;;;;2.88;1.38;;;17.30;63.60;;;;;;4990204;28;20069;-73
2021/12/31 01:22:16;;;;;;;3.40;1.30;;;17.30;63.60;;;;;;4990908;28;20038;-73
2021/12/31 01:24:43;;;;;;;3.55;1.27;;;17.30;63.70;;;;;;4990810;28;20030;-74
2021/12/31 01:27:09;;;;;;;3.30;1.20;;;17.30;63.60;;;;;;4990464;28;20049;-74
2021/12/31 01:29:35;;;;;;;3.40;1.30;;;17.30;63.60;;;;;;4989780;28;20057;-74
2021/12/31 01:32:01;;;;;;;3.33;1.02;;;17.30;63.60;;;;;;4989728;28;20440;-73
2021/12/31 01:34:26;;;;;;;3.47;1.42;;;17.30;63.50;;;;;;4990263;28;20370;-74
2021/12/31 01:36:54;;;;;;;2.83;1.25;;;17.30;63.50;;;;;;4990005;28;20092;-74
2021/12/31 01:39:19;;;;;;;3.63;1.30;;;17.30;63.50;;;;;;4989621;28;20038;-73
2021/12/31 01:41:45;;;;;;;3.20;1.17;;;17.30;63.50;;;;;;4990190;28;20033;-74
2021/12/31 01:44:11;;;;;;;2.15;1.15;;;17.30;63.50;;;;;;4989635;28;20462;-73
2021/12/31 01:46:40;;;;;;;3.33;1.13;;;17.20;63.40;;;;;;4989478;28;20092;-74
2021/12/31 01:49:18;;;;;;;4.20;1.48;;;17.20;63.30;;;;;;4989138;28;20038;-74
2021/12/31 01:51:45;;;;;;;2.47;1.30;;;17.20;63.30;;;;;;4989947;28;20030;-74
2021/12/31 01:54:11;;;;;;;2.97;1.33;;;17.20;63.40;;;;;;4989373;28;20030;-73
2021/12/31 01:56:37;;;;;;;2.85;1.40;;;17.20;63.40;;;;;;4989772;28;20045;-74
2021/12/31 01:59:06;;;;;;;2.88;1.13;;;17.20;63.40;;;;;;4989159;28;20026;-74
2021/12/31 02:01:34;;;;;;;3.58;1.38;;;17.30;63.40;;;;;;4988933;28;20032;-74
2021/12/31 02:04:00;;;;;;;3.67;1.50;;;17.20;63.30;;;;;;4988809;28;20042;-73
2021/12/31 02:06:26;;;;;;;3.75;1.30;;;17.20;63.30;;;;;;4989156;28;20038;-73
2021/12/31 02:08:51;;;;;;;3.10;1.58;;;17.20;63.30;;;;;;4988721;28;20037;-73
2021/12/31 02:11:18;;;;;;;4.45;1.50;;;17.20;63.30;;;;;;4989068;28;20023;-73
2021/12/31 02:13:44;;;;;;;2.75;1.40;;;17.20;63.20;;;;;;4971151;28;20411;-74
2021/12/31 02:16:09;;;;;;;2.47;1.17;;;17.20;63.30;;;;;;4989208;28;20129;-74
2021/12/31 02:18:36;;;;;;;2.28;1.30;;;17.20;63.20;;;;;;4988729;28;20030;-74
2021/12/31 02:21:07;;;;;;;2.03;1.17;;;17.20;63.20;;;;;;4989199;28;20062;-74
2021/12/31 02:23:42;;;;;;;3.33;1.55;;;17.20;63.30;;;;;;4988860;28;20030;-73
2021/12/31 02:26:09;;;;;;;2.28;1.35;;;17.20;63.20;;;;;;4988305;28;20140;-73
2021/12/31 02:28:34;;;;;;;2.60;1.10;;;17.20;63.20;;;;;;4988834;28;20029;-73
2021/12/31 02:31:03;;;;;;;2.13;1.20;;;17.20;63.30;;;;;;4988707;28;20466;-73
2021/12/31 02:33:29;;;;;;;2.05;1.10;;;17.20;63.20;;;;;;4988530;28;20026;-74
2021/12/31 02:35:56;;;;;;;3.78;1.50;;;17.20;63.20;;;;;;4988442;28;20478;-73
2021/12/31 02:38:22;;;;;;;3.00;1.33;;;17.20;63.20;;;;;;4987759;28;20034;-74
2021/12/31 02:40:47;;;;;;;3.15;1.35;;;17.20;63.30;;;;;;4988313;28;20081;-74
2021/12/31 02:43:13;;;;;;;2.17;1.15;;;17.20;63.20;;;;;;4987919;28;20513;-74
2021/12/31 02:45:41;;;;;;;3.30;1.40;;;17.20;63.30;;;;;;4988060;28;20049;-74
2021/12/31 02:48:06;;;;;;;2.67;1.40;;;17.20;63.20;;;;;;4987771;28;20113;-74
2021/12/31 02:50:38;;;;;;;1.98;1.25;;;17.20;63.20;;;;;;4988123;28;20781;-73
2021/12/31 02:53:06;;;;;;;2.20;1.05;;;17.20;63.30;;;;;;4988156;28;20045;-74
2021/12/31 02:55:35;;;;;;;2.63;1.40;;;17.20;63.30;;;;;;4988468;28;20026;-74
2021/12/31 02:58:03;;;;;;;1.88;1.02;;;17.20;63.20;;;;;;4987662;28;20030;-73
2021/12/31 03:00:29;;;;;;;2.55;1.40;;;17.20;63.20;;;;;;4987921;28;20034;-73
2021/12/31 03:02:57;;;;;;;2.45;1.35;;;17.10;63.10;;;;;;4988158;28;20022;-74
2021/12/31 03:05:23;;;;;;;2.20;1.42;;;17.10;63.20;;;;;;4988103;28;20100;-73
2021/12/31 03:07:50;;;;;;;3.47;1.50;;;17.10;63.20;;;;;;4988913;28;20154;-74
2021/12/31 03:10:18;;;;;;;3.05;1.30;;;17.20;63.20;;;;;;4988021;28;20723;-73
2021/12/31 03:12:44;;;;;;;2.88;1.40;;;17.20;63.20;;;;;;4987370;28;20026;-74
2021/12/31 03:15:11;;;;;;;3.38;1.40;;;17.20;63.20;;;;;;4969849;28;20533;-74
2021/12/31 03:17:40;;;;;;;2.28;1.35;;;17.10;63.10;;;;;;4987743;28;20412;-74
2021/12/31 03:20:11;;;;;;;3.47;1.25;;;17.10;63.10;;;;;;4987477;28;20498;-74
2021/12/31 03:22:39;;;;;;;3.03;1.60;;;17.10;63.20;;;;;;4988222;28;20030;-74
2021/12/31 03:25:07;;;;;;;2.45;1.20;;;17.10;63.10;;;;;;4991307;28;20088;-73
2021/12/31 03:27:34;;;;;;;3.35;1.40;;;17.10;64.00;;;;;;4987533;28;20026;-73
2021/12/31 03:29:59;;;;;;;1.92;1.10;;;17.20;63.10;;;;;;4987706;28;20026;-74
2021/12/31 03:32:25;;;;;;;3.13;1.30;;;17.10;63.10;;;;;;4987390;28;20292;-74
2021/12/31 03:34:51;;;;;;;2.05;1.20;;;17.10;63.10;;;;;;4987632;28;20031;-74
2021/12/31 03:37:17;;;;;;;2.60;1.30;;;17.10;63.10;;;;;;4987291;28;20113;-74
2021/12/31 03:39:43;;;;;;;3.50;1.20;;;17.10;63.00;;;;;;4986416;28;20035;-74
2021/12/31 03:42:14;;;;;;;2.75;1.30;;;17.10;63.20;;;;;;4986931;28;20042;-73
2021/12/31 03:44:40;;;;;;;2.33;1.30;;;17.10;63.60;;;;;;4986967;28;20631;-74
2021/12/31 03:47:06;;;;;;;1.42;1.05;;;17.10;63.10;;;;;;4987764;28;20073;-73
2021/12/31 03:49:31;;;;;;;2.13;1.17;;;17.10;63.10;;;;;;4987557;28;20035;-73
2021/12/31 03:51:57;;;;;;;1.98;1.10;;;17.10;63.10;;;;;;4987216;28;20076;-74
2021/12/31 03:54:22;;;;;;;2.40;1.13;;;17.10;63.10;;;;;;4986944;28;20033;-73
2021/12/31 03:56:49;;;;;;;2.08;1.30;;;17.10;63.20;;;;;;4986978;28;20045;-74
2021/12/31 03:59:14;;;;;;;3.65;1.55;;;17.10;63.00;;;;;;4987167;28;20769;-74
2021/12/31 05:45:25;;;;;;;1.67;0.90;;;18.70;59.30;;;;;;4908755;29;20095;-73
2021/12/31 05:47:51;;;;;;;1.38;0.88;;;18.70;59.40;;;;;;4911958;29;20036;-73
2021/12/31 05:50:28;;;;;;;1.33;0.70;;;18.70;59.40;;;;;;4912565;29;20024;-73
2021/12/31 05:52:57;;;;;;;1.92;0.80;;;18.70;59.40;;;;;;4911470;29;20028;-73
2021/12/31 05:55:23;;;;;;;1.27;0.95;;;18.80;59.30;;;;;;4912071;29;20381;-73
2021/12/31 05:57:49;;;;;;;3.03;1.10;;;18.80;59.20;;;;;;4911929;29;20513;-73
2021/12/31 06:00:16;;;;;;;1.45;0.80;;;18.80;59.20;;;;;;4912153;29;20104;-73
2021/12/31 06:02:41;;;;;;;2.20;0.80;;;18.90;59.10;;;;;;4912141;29;20039;-73
2021/12/31 06:05:07;;;;;;;0.90;0.70;;;18.90;59.00;;;;;;4911556;29;20044;-73
2021/12/31 06:07:33;;;;;;;1.90;0.82;;;19.00;58.80;;;;;;4911485;29;20064;-73
2021/12/31 06:09:59;;;;;;;2.92;1.00;;;19.00;58.70;;;;;;4912223;29;20483;-73
2021/12/31 06:12:25;;;;;;;2.25;0.80;;;19.10;58.70;;;;;;4912045;29;20024;-73
2021/12/31 06:14:54;;;;;;;0.98;0.60;;;19.10;58.70;;;;;;4911894;29;20087;-73
2021/12/31 06:17:25;;;;;;;1.58;0.80;;;19.00;58.60;;;;;;4911621;29;20027;-73
2021/12/31 06:19:51;;;;;;;1.05;0.77;;;19.00;58.80;;;;;;4911735;29;20047;-74
2021/12/31 06:22:17;;;;;;;1.38;0.80;;;19.00;58.80;;;;;;4911773;29;20024;-73
2021/12/31 06:24:42;;;;;;;1.35;0.85;;;18.90;58.90;;;;;;4911650;29;20047;-73
2021/12/31 06:27:08;;;;;;;1.83;0.90;;;18.90;59.00;;;;;;4911706;29;20483;-74
2021/12/31 06:29:34;;;;;;;1.15;0.80;;;18.80;59.10;;;;;;4910242;29;20444;-73
2021/12/31 06:32:00;;;;;;;1.05;0.85;;;18.80;59.20;;;;;;4911802;29;20039;-74
2021/12/31 06:34:25;;;;;;;1.17;0.65;;;18.70;59.30;;;;;;4911772;29;20122;-73
2021/12/31 06:36:51;;;;;;;1.70;0.70;;;18.70;59.40;;;;;;4911340;29;20035;-73
2021/12/31 06:39:17;;;;;;;1.80;0.90;;;18.60;59.50;;;;;;4910750;29;20072;-73
2021/12/31 06:41:43;;;;;;;2.63;0.90;;;18.60;59.60;;;;;;4910753;29;20068;-72
2021/12/31 06:44:09;;;;;;;1.85;0.98;;;18.60;59.80;;;;;;4910727;29;20083;-73
2021/12/31 06:46:35;;;;;;;1.70;0.68;;;18.50;59.80;;;;;;4911426;29;20043;-73
2021/12/31 06:49:01;;;;;;;1.38;0.90;;;18.50;59.90;;;;;;4911125;29;20036;-73
2021/12/31 06:51:26;;;;;;;1.13;0.73;;;18.40;60.00;;;;;;4911179;29;20032;-74
2021/12/31 06:53:52;;;;;;;1.65;0.82;;;18.40;60.10;;;;;;4910750;29;20086;-73
2021/12/31 06:56:17;;;;;;;1.45;0.77;;;18.40;60.20;;;;;;4910232;29;20036;-72
2021/12/31 06:58:44;;;;;;;1.40;0.95;;;18.30;60.20;;;;;;4911324;29;20044;-73
2021/12/31 07:01:10;;;;;;;1.73;0.95;;;18.30;60.30;;;;;;4910492;29;20033;-73
2021/12/31 07:03:36;;;;;;;1.48;0.90;;;18.30;60.30;;;;;;4910872;29;20191;-73
2021/12/31 07:06:02;;;;;;;1.73;0.70;;;18.20;60.30;;;;;;4910508;29;20028;-73
2021/12/31 07:08:27;;;;;;;1.02;0.68;;;18.20;60.40;;;;;;4910520;29;20028;-73
2021/12/31 07:10:53;;;;;;;1.67;0.75;;;18.20;60.50;;;;;;4910926;29;20056;-74
2021/12/31 07:13:18;;;;;;;1.40;0.82;;;18.10;60.60;;;;;;4911047;29;20391;-72
2021/12/31 07:15:48;;;;;;;1.35;0.80;;;18.10;60.60;;;;;;4910944;29;20063;-73
2021/12/31 07:18:14;;;;;;;1.23;0.88;;;18.10;60.70;;;;;;4911208;29;20040;-73
2021/12/31 07:20:40;;;;;;;2.13;1.02;;;18.10;60.80;;;;;;4911125;29;20380;-73
2021/12/31 07:23:08;;;;;;;2.03;0.90;;;18.10;60.80;;;;;;4910889;29;20628;-73
2021/12/31 07:25:35;;;;;;;1.65;0.90;;;18.00;60.90;;;;;;4911397;29;20039;-73
2021/12/31 07:28:02;;;;;;;1.35;0.80;;;18.00;60.90;;;;;;4910922;29;20032;-73
2021/12/31 07:30:28;;;;;;;1.25;0.82;;;18.00;61.00;;;;;;4912364;29;20484;-72
2021/12/31 07:32:53;;;;;;;1.20;0.70;;;18.00;60.90;;;;;;4910757;29;20028;-72
2021/12/31 07:35:20;;;;;;;1.08;0.70;;;17.90;61.00;;;;;;4911139;29;20092;-72
2021/12/31 07:37:45;;;;;;;0.88;0.70;;;17.90;61.00;;;;;;4911138;29;20032;-72
2021/12/31 07:40:12;;;;;;;1.60;0.70;;;17.90;61.10;;;;;;4910523;29;20047;-73
2021/12/31 07:42:38;;;;;;;1.00;0.70;;;17.90;61.20;;;;;;4911060;29;20103;-72
2021/12/31 07:45:06;;;;;;;0.98;0.80;;;17.90;61.20;;;;;;4910925;29;20059;-73
2021/12/31 07:47:32;;;;;;;1.48;0.80;;;17.80;61.20;;;;;;4911307;29;20043;-72
2021/12/31 07:49:58;;;;;;;1.45;0.80;;;17.80;61.20;;;;;;4911457;29;20043;-72
2021/12/31 07:52:23;;;;;;;1.05;0.65;;;17.80;61.30;;;;;;4911415;29;20103;-73
2021/12/31 07:54:49;;;;;;;1.60;1.00;;;17.80;61.50;;;;;;4911384;29;20084;-73
2021/12/31 07:57:15;;;;;;;1.63;1.00;;;17.80;61.50;;;;;;4911239;29;20028;-72
2021/12/31 07:59:41;;;;;;;1.77;0.90;;;17.70;61.50;;;;;;4911070;29;20055;-73
2021/12/31 08:02:07;;;;;;;1.75;0.80;;;17.70;61.50;;;;;;4911146;29;20040;-72
2021/12/31 08:04:33;;;;;;;1.25;0.70;;;17.70;61.50;;;;;;4910835;29;20036;-73
2021/12/31 08:06:59;;;;;;;1.98;0.90;;;17.70;61.70;;;;;;4911722;29;20032;-72
2021/12/31 08:09:25;;;;;;;1.50;0.90;;;17.70;61.60;;;;;;4914603;29;20079;-72
2021/12/31 08:11:51;;;;;;;1.27;0.60;;;17.70;61.70;;;;;;4914593;29;20111;-72
2021/12/31 08:14:17;;;;;;;1.30;0.80;;;17.60;61.70;;;;;;4914162;29;20064;-73
2021/12/31 08:16:42;;;;;;;1.98;0.88;;;17.60;61.70;;;;;;4914518;29;20084;-73
2021/12/31 08:19:08;;;;;;;1.50;0.80;;;17.70;61.90;;;;;;4914476;29;20060;-72
2021/12/31 08:21:34;;;;;;;1.20;0.65;;;17.70;61.90;;;;;;4914545;29;20075;-73
2021/12/31 08:24:00;;;;;;;3.28;0.95;;;17.80;61.60;;;;;;4914642;29;20036;-72
2021/12/31 08:26:25;;;;;;;1.55;0.70;;;17.90;61.60;;;;;;4914236;29;20036;-72
2021/12/31 08:28:51;;;;;;;1.38;0.93;;;17.90;61.60;;;;;;4914481;29;20047;-72
2021/12/31 08:31:16;;;;;;;0.88;0.77;;;18.00;61.60;;;;;;4915205;29;20111;-73
2021/12/31 08:33:42;;;;;;;2.50;0.98;;;18.10;61.50;;;;;;4914773;29;20151;-72
2021/12/31 08:36:08;;;;;;;1.33;0.70;;;18.30;61.30;;;;;;4914638;29;20734;-75
2021/12/31 08:38:33;;;;;;;2.38;0.75;;;18.40;61.30;;;;;;4914550;29;20028;-73
2021/12/31 08:41:01;;;;;;;1.50;0.70;;;18.40;61.40;;;;;;4914607;29;20032;-75
2021/12/31 08:43:26;;;;;;;1.92;0.77;;;18.40;61.60;;;;;;4915051;29;20093;-72
2021/12/31 08:45:52;;;;;;;2.83;0.80;;;18.50;61.70;;;;;;4914816;29;20475;-72
2021/12/31 08:48:18;;;;;;;2.25;0.82;;;18.50;61.90;;;;;;4915457;29;20032;-74
2021/12/31 08:50:46;;;;;;;1.65;0.70;;;18.60;61.90;;;;;;4914789;29;20047;-72
2021/12/31 08:53:12;;;;;;;1.88;0.93;;;18.70;61.80;;;;;;4914676;29;20063;-72
2021/12/31 08:55:37;;;;;;;1.45;0.65;;;18.70;61.50;;;;;;4914597;29;20028;-72
2021/12/31 08:58:03;;;;;;;2.88;1.00;;;18.80;61.30;;;;;;4913807;29;20051;-73
2021/12/31 09:00:29;;;;;;;3.92;0.93;;;18.90;61.20;;;;;;4913462;29;20032;-72
2021/12/31 09:02:54;;;;;;;0.98;0.63;;;18.80;61.10;;;;;;4913491;29;20913;-70
2021/12/31 09:05:22;;;;;;;1.77;0.80;;;18.80;61.10;;;;;;4913472;29;20492;-68
2021/12/31 09:07:48;;;;;;;3.65;1.10;;;18.80;61.20;;;;;;4912810;29;20513;-73
2021/12/31 09:10:14;;;;;;;3.17;1.10;;;18.90;61.40;;;;;;4913349;29;20555;-72
2021/12/31 09:12:40;;;;;;;2.80;0.80;;;18.90;61.30;;;;;;4913287;29;20028;-70
2021/12/31 09:15:06;;;;;;;3.53;1.10;;;18.90;61.20;;;;;;4915330;29;20036;-72
2021/12/31 09:17:32;;;;;;;1.23;0.70;;;19.00;61.20;;;;;;4914005;29;20089;-74
2021/12/31 09:19:57;;;;;;;4.32;0.90;;;19.00;61.40;;;;;;4912838;29;20387;-73
2021/12/31 09:22:25;;;;;;;4.82;0.70;;;19.10;61.70;;;;;;4913168;29;20051;-71
2021/12/31 09:24:50;;;;;;;3.30;0.90;;;19.10;61.70;;;;;;4913274;29;20024;-72
2021/12/31 09:27:18;;;;;;;2.53;0.90;;;19.10;61.90;;;;;;4912034;29;20059;-72
2021/12/31 09:29:44;;;;;;;1.42;0.80;;;19.10;62.20;;;;;;4915291;29;20063;-72
2021/12/31 09:32:10;;;;;;;2.55;0.90;;;19.00;62.00;;;;;;4930753;29;20436;-72
2021/12/31 09:34:36;;;;;;;1.77;0.85;;;19.00;62.10;;;;;;4930911;29;20114;-69
2021/12/31 09:37:02;;;;;;;3.40;0.93;;;19.00;62.20;;;;;;4930261;29;20542;-71
2021/12/31 09:39:28;;;;;;;3.35;1.00;;;19.10;62.30;;;;;;4930022;29;20047;-72
2021/12/31 09:41:53;;;;;;;3.55;0.85;;;19.10;62.20;;;;;;4930503;29;20031;-73
2021/12/31 09:44:22;;;;;;;3.72;0.82;;;19.10;62.20;;;;;;4930465;29;20510;-70
2021/12/31 09:46:49;;;;;;;1.52;0.85;;;19.20;62.30;;;;;;4930382;29;20036;-72
2021/12/31 09:49:14;;;;;;;2.38;0.90;;;19.20;62.40;;;;;;4931484;29;20051;-71
2021/12/31 09:51:42;;;;;;;1.75;0.73;;;19.20;62.50;;;;;;4931529;29;20110;-70
2021/12/31 09:54:10;;;;;;;2.10;1.10;;;19.10;62.50;;;;;;4931689;29;20115;-72
2021/12/31 09:56:39;;;;;;;2.28;1.00;;;19.10;62.70;;;;;;4931769;29;20024;-67
2021/12/31 09:59:05;;;;;;;3.47;1.20;;;19.10;62.90;;;;;;4931555;29;20099;-69
2021/12/31 10:01:31;;;;;;;2.33;1.30;;;19.10;63.00;;;;;;4914744;29;20031;-72
2021/12/31 10:04:00;;;;;;;3.83;1.30;;;19.10;63.30;;;;;;4914029;29;20035;-71
2021/12/31 10:06:26;;;;;;;2.17;1.13;;;19.10;63.30;;;;;;4931203;29;20035;-71
2021/12/31 10:08:53;;;;;;;3.25;1.20;;;19.10;63.50;;;;;;4931277;29;20042;-76
2021/12/31 10:11:20;;;;;;;5.53;1.30;;;19.00;63.70;;;;;;4931101;29;20027;-74
2021/12/31 10:13:56;;;;;;;6.55;1.20;;;19.10;63.90;;;;;;4931270;29;20028;-74
2021/12/31 10:16:40;;;;;;;5.72;1.30;;;19.10;64.30;;;;;;4930379;29;20027;-73
2021/12/31 10:19:14;;;;;;;3.88;1.40;;;19.20;64.20;;;;;;4930836;29;20733;-73
2021/12/31 10:21:43;;;;;;;3.05;1.60;;;19.20;64.20;;;;;;4931582;29;20043;-72
2021/12/31 10:24:24;;;;;;;4.05;1.90;;;19.10;64.30;;;;;;4930989;29;20091;-72
2021/12/31 10:26:56;;;;;;;4.53;2.00;;;19.20;64.30;;;;;;4930917;29;20030;-71
2021/12/31 10:29:22;;;;;;;4.05;2.20;;;19.10;64.20;;;;;;4913957;29;20146;-70
2021/12/31 10:31:51;;;;;;;5.25;2.22;;;19.10;64.30;;;;;;4930539;29;20400;-73
2021/12/31 10:34:37;;;;;;;6.50;2.58;;;19.10;64.30;;;;;;4931118;29;20031;-73
2021/12/31 10:37:12;;;;;;;10.32;2.60;;;19.10;64.50;;;;;;4930061;29;20032;-71
2021/12/31 10:39:39;;;;;;;7.25;2.50;;;19.10;64.80;;;;;;4930375;29;20062;-74
2021/12/31 10:42:06;;;;;;;11.35;2.72;;;19.10;64.90;;;;;;4912837;29;20419;-74
2021/12/31 10:44:44;;;;;;;6.85;3.00;;;19.10;65.00;;;;;;4930182;29;20047;-74
2021/12/31 10:47:18;;;;;;;6.80;3.08;;;19.10;65.20;;;;;;4930576;29;20032;-72
2021/12/31 10:50:19;;;;;;;6.40;2.90;;;19.00;65.20;;;;;;4930937;29;20036;-72
2021/12/31 10:53:07;;;;;;;9.98;3.25;;;19.00;65.50;;;;;;4930235;29;20719;-69
2021/12/31 10:55:39;;;;;;;12.52;3.25;;;19.00;65.60;;;;;;4930929;29;20024;-71
2021/12/31 10:58:14;;;;;;;8.82;3.45;;;19.10;65.60;;;;;;4933266;29;20115;-71
2021/12/31 11:00:44;;;;;;;9.48;3.10;;;19.10;65.60;;;;;;4934951;29;20040;-74
2021/12/31 11:03:10;;;;;;;9.88;3.22;;;19.10;65.60;;;;;;4931793;29;20027;-73
2021/12/31 11:05:36;;;;;;;7.20;3.20;;;19.10;65.50;;;;;;4931281;29;20016;-74
2021/12/31 11:08:07;;;;;;;9.30;3.30;;;19.10;65.40;;;;;;4932524;29;20071;-73
2021/12/31 11:10:36;;;;;;;12.48;3.33;;;19.10;65.60;;;;;;4934259;29;20114;-74
2021/12/31 11:13:14;;;;;;;8.50;3.33;;;19.20;65.80;;;;;;4933721;29;20099;-74
2021/12/31 11:15:45;;;;;;;6.63;2.90;;;19.10;65.60;;;;;;4934313;29;20063;-74
2021/12/31 11:18:12;;;;;;;7.88;3.30;;;19.10;65.50;;;;;;4934209;29;20042;-72
2021/12/31 11:20:39;;;;;;;8.25;3.13;;;19.10;65.50;;;;;;4932979;29;20043;-73
2021/12/31 11:23:05;;;;;;;10.23;2.83;;;19.10;65.50;;;;;;4934440;29;20031;-73
2021/12/31 11:25:31;;;;;;;6.28;2.75;;;19.10;65.40;;;;;;4934257;29;20039;-74
2021/12/31 11:27:58;;;;;;;5.35;2.63;;;19.10;65.40;;;;;;4935830;29;20052;-76
2021/12/31 11:30:39;;;;;;;7.40;3.00;;;19.10;65.50;;;;;;4937034;29;20111;-75
2021/12/31 11:33:06;;;;;;;6.90;2.80;;;19.20;65.70;;;;;;4934285;29;20050;-74
2021/12/31 11:35:38;;;;;;;4.10;3.08;;;19.20;66.00;;;;;;4936028;29;20062;-76
2021/12/31 11:38:45;;;;;;;9.25;3.33;;;19.20;65.90;;;;;;4934711;29;20024;-73
2021/12/31 11:41:18;;;;;;;5.10;3.10;;;19.20;66.00;;;;;;4929479;29;20126;-72
2021/12/31 11:43:45;;;;;;;4.55;3.08;;;19.20;65.70;;;;;;4934328;29;20066;-74
2021/12/31 11:48:48;;;;;;;10.25;3.08;;;19.20;65.50;;;;;;4934354;29;20035;-76
2021/12/31 11:51:19;;;;;;;5.13;3.40;;;19.20;65.70;;;;;;4935801;29;20036;-75
2021/12/31 11:54:00;;;;;;;8.57;3.80;;;19.20;66.10;;;;;;4932598;29;20028;-72
2021/12/31 11:56:41;;;;;;;7.15;3.90;;;19.20;66.00;;;;;;4931527;29;20038;-74
2021/12/31 11:59:11;;;;;;;19.75;4.40;;;19.20;65.90;;;;;;4933028;29;20541;-75
2021/12/31 12:01:37;;;;;;;6.80;3.97;;;19.20;66.10;;;;;;4932768;29;20055;-75
2021/12/31 12:04:34;;;;;;;6.05;4.18;;;19.20;66.10;;;;;;4931949;29;20032;-75
2021/12/31 12:07:29;;;;;;;5.28;4.40;;;19.20;65.90;;;;;;4922962;29;20066;-74
2021/12/31 12:09:55;;;;;;;7.55;4.65;;;19.20;65.70;;;;;;4931708;29;20042;-73
2021/12/31 12:12:26;;;;;;;4.93;4.25;;;19.20;65.70;;;;;;4933067;29;20032;-72
2021/12/31 12:14:54;;;;;;;4.80;4.28;;;19.20;65.70;;;;;;4934056;29;20108;-73
2021/12/31 12:17:28;;;;;;;7.47;4.85;;;19.20;65.70;;;;;;4933846;29;20459;-73
2021/12/31 12:19:57;;;;;;;4.85;4.32;;;19.20;65.70;;;;;;4933485;29;20036;-73
2021/12/31 12:22:27;;;;;;;6.03;5.00;;;19.20;65.80;;;;;;4932950;29;20495;-73
2021/12/31 12:24:54;;;;;;;9.32;4.80;;;19.20;65.70;;;;;;4932973;29;20028;-73
2021/12/31 12:27:24;;;;;;;6.05;4.40;;;19.20;65.70;;;;;;4933610;29;20028;-72
2021/12/31 12:29:51;;;;;;;5.82;4.65;;;19.30;65.80;;;;;;4931849;29;20340;-74
2021/12/31 12:32:29;;;;;;;11.43;4.63;;;19.20;65.80;;;;;;4932056;29;20032;-71
2021/12/31 12:34:56;;;;;;;7.53;4.20;;;19.20;66.00;;;;;;4930987;29;20701;-71
2021/12/31 12:37:29;;;;;;;5.15;4.65;;;19.20;65.90;;;;;;4931564;29;20036;-73
2021/12/31 12:40:04;;;;;;;6.05;4.35;;;19.30;65.90;;;;;;4932787;29;20035;-72
2021/12/31 12:42:35;;;;;;;5.15;4.65;;;19.30;65.90;;;;;;4932693;29;20032;-73
2021/12/31 12:45:07;;;;;;;7.22;4.43;;;19.30;65.80;;;;;;4936708;29;20059;-72
2021/12/31 12:47:36;;;;;;;5.13;4.38;;;19.30;65.90;;;;;;4935875;29;20063;-72
2021/12/31 12:50:07;;;;;;;7.78;4.40;;;19.30;66.00;;;;;;4933855;29;20472;-75
2021/12/31 12:52:33;;;;;;;5.22;4.40;;;19.30;66.00;;;;;;4932308;29;20036;-75
2021/12/31 12:55:14;;;;;;;6.75;5.00;;;19.30;66.20;;;;;;4936187;29;20035;-74
2021/12/31 12:57:41;;;;;;;6.20;4.22;;;19.30;66.40;;;;;;4919469;29;20036;-74
2021/12/31 13:00:09;;;;;;;5.32;4.30;;;19.30;66.40;;;;;;4936768;29;20046;-73
2021/12/31 13:02:40;;;;;;;5.50;4.05;;;19.30;66.20;;;;;;4936682;29;20027;-73
2021/12/31 13:05:14;;;;;;;4.30;3.90;;;19.30;66.20;;;;;;4937076;29;20027;-74
2021/12/31 13:07:53;;;;;;;5.78;4.07;;;19.40;66.30;;;;;;4935787;29;20115;-74
2021/12/31 13:10:23;;;;;;;6.75;4.68;;;19.30;66.20;;;;;;4935796;29;20039;-73
2021/12/31 13:12:49;;;;;;;6.90;5.15;;;19.30;66.20;;;;;;4935432;29;20036;-74
2021/12/31 13:15:15;;;;;;;8.30;5.68;;;19.30;66.20;;;;;;4935759;29;20035;-75
2021/12/31 13:17:41;;;;;;;6.47;5.68;;;19.30;66.20;;;;;;4936256;29;20028;-74
2021/12/31 13:20:11;;;;;;;6.85;5.63;;;19.30;66.20;;;;;;4936095;29;20160;-73
2021/12/31 13:22:38;;;;;;;7.68;5.07;;;19.30;66.40;;;;;;4935643;29;20028;-74
2021/12/31 13:25:06;;;;;;;5.88;5.10;;;19.30;66.40;;;;;;4935018;29;20131;-75
2021/12/31 13:27:35;;;;;;;7.57;4.82;;;19.30;66.50;;;;;;4933728;29;20555;-75
2021/12/31 13:30:11;;;;;;;7.50;4.90;;;19.30;66.60;;;;;;4935520;29;20027;-74
2021/12/31 13:32:39;;;;;;;5.95;4.63;;;19.30;66.80;;;;;;4933184;29;20051;-75
2021/12/31 13:35:07;;;;;;;6.38;4.80;;;19.30;66.90;;;;;;4936107;29;20028;-75
2021/12/31 13:37:35;;;;;;;8.52;5.07;;;19.30;67.20;;;;;;4935811;29;20023;-73
2021/12/31 13:40:14;;;;;;;6.03;5.43;;;19.30;67.00;;;;;;4935211;29;20051;-73
2021/12/31 13:42:57;;;;;;;5.88;5.28;;;19.30;67.20;;;;;;4937418;29;20103;-72
2021/12/31 13:45:23;;;;;;;6.33;5.60;;;19.30;67.10;;;;;;4934700;29;20056;-73
2021/12/31 13:47:50;;;;;;;6.40;5.68;;;19.20;67.00;;;;;;4934488;29;20274;-72
2021/12/31 13:50:21;;;;;;;6.63;5.38;;;19.20;66.80;;;;;;4932939;29;20031;-74
2021/12/31 13:53:00;;;;;;;5.65;5.05;;;19.20;67.00;;;;;;4932850;29;20024;-72
2021/12/31 13:55:29;;;;;;;7.10;5.72;;;19.20;67.30;;;;;;4932508;29;20036;-71
2021/12/31 13:58:03;;;;;;;7.53;5.65;;;19.20;67.40;;;;;;4932674;29;20032;-72
2021/12/31 14:00:31;;;;;;;7.70;5.15;;;19.10;67.40;;;;;;4933311;29;20059;-75
2021/12/31 14:02:57;;;;;;;5.82;5.00;;;19.10;67.70;;;;;;4933132;29;20083;-75
2021/12/31 14:05:26;;;;;;;6.25;4.68;;;19.10;67.70;;;;;;4933582;29;20027;-75
2021/12/31 14:10:21;;;;;;;5.53;4.82;;;19.10;67.50;;;;;;4933802;29;20079;-73
2021/12/31 14:12:47;;;;;;;5.32;4.70;;;19.10;67.70;;;;;;4933676;29;20024;-74
2021/12/31 14:15:14;;;;;;;7.38;4.80;;;19.00;67.90;;;;;;4932672;29;20031;-74
2021/12/31 14:17:39;;;;;;;6.72;4.90;;;19.00;68.00;;;;;;4932755;29;20032;-73
2021/12/31 14:20:07;;;;;;;6.60;4.78;;;19.00;68.10;;;;;;4933374;29;20386;-74
2021/12/31 14:22:33;;;;;;;6.18;4.85;;;19.00;68.20;;;;;;4932690;29;20066;-74
2021/12/31 14:24:59;;;;;;;5.43;4.80;;;19.00;68.40;;;;;;4932490;29;20135;-74
2021/12/31 14:27:25;;;;;;;6.30;5.13;;;18.90;68.30;;;;;;4935129;29;20163;-75
2021/12/31 14:29:53;;;;;;;5.38;4.78;;;18.90;68.40;;;;;;4934674;29;20032;-75
2021/12/31 14:32:18;;;;;;;7.80;4.50;;;18.90;68.40;;;;;;4937352;29;20039;-75
2021/12/31 14:34:45;;;;;;;5.90;4.75;;;18.90;68.40;;;;;;4934753;29;20041;-75
2021/12/31 14:37:14;;;;;;;5.10;4.45;;;18.90;68.50;;;;;;4933887;29;20027;-72
2021/12/31 14:39:50;;;;;;;8.48;4.65;;;18.90;68.50;;;;;;4933095;29;20047;-73